sensor_id;sensor_type;location;lat;lon;timestamp;pressure;altitude;pressure_sealevel;temperature;humidity
46174;BME280;31897;52.420;13.498;2023-01-29T00:00:51;102400;;;-1.40947;30.81285
46174;BME280;31897;52.420;13.498;2023-01-29T00:03:52;102400;;;-1.4534;30.84807
46174;BME280;31897;52.420;13.498;2023-01-29T00:06:53;102400;;;-1.43563;30.89361
46174;BME280;31897;52.420;13.498;2023-01-29T00:09:54;102400;;;-1.47116;30.85987
46174;BME280;31897;52.420;13.498;2023-01-29T00:12:54;102400;;;-1.56225;31.00485
46174;BME280;31897;52.420;13.498;2023-01-29T00:15:56;102400;;;-1.63783;31.10364
46174;BME280;31897;52.420;13.498;2023-01-29T00:18:57;102400;;;-1.64138;31.13808
46174;BME280;31897;52.420;13.498;2023-01-29T00:21:57;102400;;;-1.58163;31.17713
46174;BME280;31897;52.420;13.498;2023-01-29T00:24:58;102400;;;-1.53027;31.15329
46174;BME280;31897;52.420;13.498;2023-01-29T00:27:59;102400;;;-1.52284;31.18755
46174;BME280;31897;52.420;13.498;2023-01-29T00:31:05;102400;;;-1.4492;31.15758
46174;BME280;31897;52.420;13.498;2023-01-29T00:34:06;102400;;;-1.53512;31.13618
46174;BME280;31897;52.420;13.498;2023-01-29T00:37:06;102400;;;-1.64009;31.2985
46174;BME280;31897;52.420;13.498;2023-01-29T00:40:08;102300;;;-1.59035;31.33202
46174;BME280;31897;52.420;13.498;2023-01-29T00:43:09;102300;;;-1.61264;31.34387
46174;BME280;31897;52.420;13.498;2023-01-29T00:46:10;102300;;;-1.58938;31.41223
46174;BME280;31897;52.420;13.498;2023-01-29T00:49:11;102300;;;-1.61651;31.46427
46174;BME280;31897;52.420;13.498;2023-01-29T00:52:12;102300;;;-1.59907;31.53273
46174;BME280;31897;52.420;13.498;2023-01-29T00:55:13;102300;;;-1.5587;31.48047
46174;BME280;31897;52.420;13.498;2023-01-29T00:58:14;102300;;;-1.52543;31.45125
46174;BME280;31897;52.420;13.498;2023-01-29T01:01:14;102300;;;-1.46858;31.46747
46174;BME280;31897;52.420;13.498;2023-01-29T01:04:15;102300;;;-1.3972;31.40318
46174;BME280;31897;52.420;13.498;2023-01-29T01:07:16;102300;;;-1.39591;31.42036
46174;BME280;31897;52.420;13.498;2023-01-29T01:10:24;102300;;;-1.41916;31.42649
46174;BME280;31897;52.420;13.498;2023-01-29T01:13:25;102300;;;-1.42045;31.43225
46174;BME280;31897;52.420;13.498;2023-01-29T01:16:26;102300;;;-1.3888;31.4145
46174;BME280;31897;52.420;13.498;2023-01-29T01:19:27;102300;;;-1.3804;31.40289
46174;BME280;31897;52.420;13.498;2023-01-29T01:22:28;102300;;;-1.39397;31.449
46174;BME280;31897;52.420;13.498;2023-01-29T01:25:28;102300;;;-1.45469;31.45003
46174;BME280;31897;52.420;13.498;2023-01-29T01:28:29;102300;;;-1.42885;31.52985
46174;BME280;31897;52.420;13.498;2023-01-29T01:31:30;102300;;;-1.40269;31.5294
46174;BME280;31897;52.420;13.498;2023-01-29T01:34:31;102300;;;-1.44597;31.51867
46174;BME280;31897;52.420;13.498;2023-01-29T01:37:32;102300;;;-1.49248;31.60544
46174;BME280;31897;52.420;13.498;2023-01-29T01:40:33;102300;;;-1.47472;31.69684
46174;BME280;31897;52.420;13.498;2023-01-29T01:43:51;102300;;;-1.45405;31.61052
46174;BME280;31897;52.420;13.498;2023-01-29T01:46:52;102300;;;-1.43499;31.63313
46174;BME280;31897;52.420;13.498;2023-01-29T01:49:53;102300;;;-1.40172;31.65552
46174;BME280;31897;52.420;13.498;2023-01-29T01:52:55;102300;;;-1.37653;31.68375
46174;BME280;31897;52.420;13.498;2023-01-29T01:55:58;102300;;;-1.2919;31.59059
46174;BME280;31897;52.420;13.498;2023-01-29T01:59:00;102300;;;-1.21826;31.57787
46174;BME280;31897;52.420;13.498;2023-01-29T02:02:01;102300;;;-1.26703;31.61884
46174;BME280;31897;52.420;13.498;2023-01-29T02:05:02;102300;;;-1.24506;31.65288
46174;BME280;31897;52.420;13.498;2023-01-29T02:08:03;102300;;;-1.31645;31.63688
46174;BME280;31897;52.420;13.498;2023-01-29T02:11:04;102300;;;-1.39429;31.7815
46174;BME280;31897;52.420;13.498;2023-01-29T02:14:05;102300;;;-1.38137;31.83288
46174;BME280;31897;52.420;13.498;2023-01-29T02:17:07;102300;;;-1.4169;31.90224
46174;BME280;31897;52.420;13.498;2023-01-29T02:20:11;102300;;;-1.38363;31.89024
46174;BME280;31897;52.420;13.498;2023-01-29T02:23:15;102300;;;-1.41529;31.93661
46174;BME280;31897;52.420;13.498;2023-01-29T02:26:24;102300;;;-1.37879;31.95895
46174;BME280;31897;52.420;13.498;2023-01-29T02:29:35;102300;;;-1.36877;31.93013
46174;BME280;31897;52.420;13.498;2023-01-29T02:32:48;102300;;;-1.44855;32.01738
46174;BME280;31897;52.420;13.498;2023-01-29T02:35:53;102300;;;-1.44565;32.06892
46174;BME280;31897;52.420;13.498;2023-01-29T02:38:57;102300;;;-1.39591;32.08533
46174;BME280;31897;52.420;13.498;2023-01-29T02:42:00;102300;;;-1.4815;32.10387
46174;BME280;31897;52.420;13.498;2023-01-29T02:45:03;102300;;;-1.48861;32.23578
46174;BME280;31897;52.420;13.498;2023-01-29T02:48:06;102300;;;-1.4337;32.22921
46174;BME280;31897;52.420;13.498;2023-01-29T02:51:14;102300;;;-1.33744;32.21626
46174;BME280;31897;52.420;13.498;2023-01-29T02:54:18;102300;;;-1.28286;32.12368
46174;BME280;31897;52.420;13.498;2023-01-29T02:57:22;102300;;;-1.22827;32.14575
46174;BME280;31897;52.420;13.498;2023-01-29T03:00:24;102300;;;-1.22859;31.9336
46174;BME280;31897;52.420;13.498;2023-01-29T03:03:27;102300;;;-1.21212;32.02509
46174;BME280;31897;52.420;13.498;2023-01-29T03:06:31;102300;;;-1.33486;32.01558
46174;BME280;31897;52.420;13.498;2023-01-29T03:09:33;102300;;;-1.3691;32.1193
46174;BME280;31897;52.420;13.498;2023-01-29T03:12:34;102300;;;-1.3284;32.23333
46174;BME280;31897;52.420;13.498;2023-01-29T03:15:39;102300;;;-1.30966;32.12983
46174;BME280;31897;52.420;13.498;2023-01-29T03:18:43;102300;;;-1.29125;32.07795
46174;BME280;31897;52.420;13.498;2023-01-29T03:21:46;102300;;;-1.268;32.14639
46174;BME280;31897;52.420;13.498;2023-01-29T03:24:48;102300;;;-1.33163;32.10152
46174;BME280;31897;52.420;13.498;2023-01-29T03:27:51;102300;;;-1.37491;32.16525
46174;BME280;31897;52.420;13.498;2023-01-29T03:30:53;102300;;;-1.35004;32.22219
46174;BME280;31897;52.420;13.498;2023-01-29T03:33:57;102300;;;-1.28641;32.22121
46174;BME280;31897;52.420;13.498;2023-01-29T03:37:00;102300;;;-1.24603;32.12884
46174;BME280;31897;52.420;13.498;2023-01-29T03:40:03;102300;;;-1.24377;32.10587
46174;BME280;31897;52.420;13.498;2023-01-29T03:43:06;102300;;;-1.26832;32.18079
46174;BME280;31897;52.420;13.498;2023-01-29T03:46:09;102200;;;-1.32162;32.14722
46174;BME280;31897;52.420;13.498;2023-01-29T03:49:16;102200;;;-1.34487;32.27943
46174;BME280;31897;52.420;13.498;2023-01-29T03:52:19;102200;;;-1.2835;32.20969
46174;BME280;31897;52.420;13.498;2023-01-29T03:55:21;102200;;;-1.2961;32.23282
46174;BME280;31897;52.420;13.498;2023-01-29T03:58:28;102200;;;-1.33001;32.27347
46174;BME280;31897;52.420;13.498;2023-01-29T04:01:36;102200;;;-1.32581;32.3078
46174;BME280;31897;52.420;13.498;2023-01-29T04:04:40;102200;;;-1.33001;32.36519
46174;BME280;31897;52.420;13.498;2023-01-29T04:07:43;102200;;;-1.3242;32.3823
46174;BME280;31897;52.420;13.498;2023-01-29T04:10:44;102200;;;-1.35715;32.37133
46174;BME280;31897;52.420;13.498;2023-01-29T04:13:47;102200;;;-1.34487;32.35396
46174;BME280;31897;52.420;13.498;2023-01-29T04:16:49;102200;;;-1.29901;32.36472
46174;BME280;31897;52.420;13.498;2023-01-29T04:19:51;102200;;;-1.28221;32.34154
46174;BME280;31897;52.420;13.498;2023-01-29T04:22:53;102200;;;-1.35036;32.38269
46174;BME280;31897;52.420;13.498;2023-01-29T04:25:59;102200;;;-1.36748;32.50332
46174;BME280;31897;52.420;13.498;2023-01-29T04:29:09;102200;;;-1.35133;32.53747
46174;BME280;31897;52.420;13.498;2023-01-29T04:32:15;102200;;;-1.23247;32.44399
46174;BME280;31897;52.420;13.498;2023-01-29T04:35:20;102200;;;-1.22342;32.42092
46174;BME280;31897;52.420;13.498;2023-01-29T04:38:28;102200;;;-1.1866;32.51784
46174;BME280;31897;52.420;13.498;2023-01-29T04:41:32;102200;;;-1.18983;32.43761
46174;BME280;31897;52.420;13.498;2023-01-29T04:44:37;102100;;;-1.22213;32.52984
46174;BME280;31897;52.420;13.498;2023-01-29T04:47:40;102100;;;-1.22342;32.59866
46174;BME280;31897;52.420;13.498;2023-01-29T04:50:50;102200;;;-1.18176;32.61525
46174;BME280;31897;52.420;13.498;2023-01-29T04:53:56;102200;;;-1.11425;32.55692
46174;BME280;31897;52.420;13.498;2023-01-29T04:57:00;102200;;;-1.10068;32.49363
46174;BME280;31897;52.420;13.498;2023-01-29T05:00:04;102200;;;-1.06257;32.47012
46174;BME280;31897;52.420;13.498;2023-01-29T05:03:07;102200;;;-1.08938;32.4992
46174;BME280;31897;52.420;13.498;2023-01-29T05:06:08;102200;;;-1.11554;32.56267
46174;BME280;31897;52.420;13.498;2023-01-29T05:09:10;102200;;;-1.15107;32.67788
46174;BME280;31897;52.420;13.498;2023-01-29T05:12:13;102200;;;-1.12329;32.7807
46174;BME280;31897;52.420;13.498;2023-01-29T05:15:16;102200;;;-1.07323;32.77999
46174;BME280;31897;52.420;13.498;2023-01-29T05:18:19;102200;;;-1.04933;32.837
46174;BME280;31897;52.420;13.498;2023-01-29T05:21:20;102200;;;-1.04157;32.90571
46174;BME280;31897;52.420;13.498;2023-01-29T05:24:22;102200;;;-1.03931;33.01465
46174;BME280;31897;52.420;13.498;2023-01-29T05:27:25;102200;;;-1.04061;33.16951
46174;BME280;31897;52.420;13.498;2023-01-29T05:30:29;102200;;;-1.03027;33.3873
46174;BME280;31897;52.420;13.498;2023-01-29T05:33:30;102200;;;-1.09584;33.67482
46174;BME280;31897;52.420;13.498;2023-01-29T05:36:31;102200;;;-1.05482;33.86926
46174;BME280;31897;52.420;13.498;2023-01-29T05:39:31;102200;;;-0.99668;33.9718
46174;BME280;31897;52.420;13.498;2023-01-29T05:42:32;102200;;;-1.00217;34.07507
46174;BME280;31897;52.420;13.498;2023-01-29T05:45:33;102200;;;-1.01121;34.20131
46174;BME280;31897;52.420;13.498;2023-01-29T05:48:34;102200;;;-1.00604;34.30445
46174;BME280;31897;52.420;13.498;2023-01-29T05:51:34;102200;;;-1.01444;34.48801
46174;BME280;31897;52.420;13.498;2023-01-29T05:54:35;102200;;;-1.05256;34.67184
46174;BME280;31897;52.420;13.498;2023-01-29T05:57:36;102200;;;-1.09196;34.97599
46174;BME280;31897;52.420;13.498;2023-01-29T06:00:37;102200;;;-1.06741;35.1649
46174;BME280;31897;52.420;13.498;2023-01-29T06:03:38;102200;;;-1.04254;35.2048
46174;BME280;31897;52.420;13.498;2023-01-29T06:06:38;102200;;;-1.09229;35.38288
46174;BME280;31897;52.420;13.498;2023-01-29T06:09:39;102200;;;-1.22859;35.61886
46174;BME280;31897;52.420;13.498;2023-01-29T06:12:40;102200;;;-1.2764;35.87696
46174;BME280;31897;52.420;13.498;2023-01-29T06:15:42;102200;;;-1.19403;35.95658
46174;BME280;31897;52.420;13.498;2023-01-29T06:18:42;102200;;;-1.07678;35.99588
46174;BME280;31897;52.420;13.498;2023-01-29T06:21:43;102200;;;-1.04028;36.01282
46174;BME280;31897;52.420;13.498;2023-01-29T06:24:44;102200;;;-0.98085;35.90353
46174;BME280;31897;52.420;13.498;2023-01-29T06:27:45;102200;;;-1.00895;35.93238
46174;BME280;31897;52.420;13.498;2023-01-29T06:30:45;102200;;;-1.01896;36.06998
46174;BME280;31897;52.420;13.498;2023-01-29T06:33:46;102200;;;-0.95566;36.10968
46174;BME280;31897;52.420;13.498;2023-01-29T06:36:47;102200;;;-0.945;36.06376
46174;BME280;31897;52.420;13.498;2023-01-29T06:39:48;102200;;;-1.00992;36.17307
46174;BME280;31897;52.420;13.498;2023-01-29T06:42:48;102200;;;-0.96955;36.28742
46174;BME280;31897;52.420;13.498;2023-01-29T06:45:50;102200;;;-0.96341;36.19569
46174;BME280;31897;52.420;13.498;2023-01-29T06:48:51;102200;;;-0.94241;36.22421
46174;BME280;31897;52.420;13.498;2023-01-29T06:51:52;102200;;;-0.89235;36.17804
46174;BME280;31897;52.420;13.498;2023-01-29T06:54:52;102200;;;-0.95436;36.21856
46174;BME280;31897;52.420;13.498;2023-01-29T06:57:53;102200;;;-0.98182;36.36199
46174;BME280;31897;52.420;13.498;2023-01-29T07:01:01;102200;;;-0.9731;36.41351
46174;BME280;31897;52.420;13.498;2023-01-29T07:04:02;102200;;;-0.94597;36.44774
46174;BME280;31897;52.420;13.498;2023-01-29T07:07:03;102200;;;-0.98731;36.44798
46174;BME280;31897;52.420;13.498;2023-01-29T07:10:04;102200;;;-0.99506;36.61992
46174;BME280;31897;52.420;13.498;2023-01-29T07:13:05;102200;;;-0.94758;36.57382
46174;BME280;31897;52.420;13.498;2023-01-29T07:16:06;102200;;;-0.86037;36.64211
46174;BME280;31897;52.420;13.498;2023-01-29T07:19:07;102200;;;-0.79286;36.5099
46174;BME280;31897;52.420;13.498;2023-01-29T07:22:07;102200;;;-0.79028;36.49842
46174;BME280;31897;52.420;13.498;2023-01-29T07:25:08;102200;;;-0.78479;36.54425
46174;BME280;31897;52.420;13.498;2023-01-29T07:28:09;102200;;;-0.79125;36.52709
46174;BME280;31897;52.420;13.498;2023-01-29T07:31:11;102200;;;-0.83098;36.68781
46174;BME280;31897;52.420;13.498;2023-01-29T07:34:12;102200;;;-0.82096;36.6591
46174;BME280;31897;52.420;13.498;2023-01-29T07:37:13;102200;;;-0.83033;36.7222
46174;BME280;31897;52.420;13.498;2023-01-29T07:40:14;102200;;;-0.85133;36.75669
46174;BME280;31897;52.420;13.498;2023-01-29T07:43:15;102200;;;-0.7906;36.8481
46174;BME280;31897;52.420;13.498;2023-01-29T07:46:15;102200;;;-0.69919;36.80178
46174;BME280;31897;52.420;13.498;2023-01-29T07:49:16;102200;;;-0.62975;36.64659
46174;BME280;31897;52.420;13.498;2023-01-29T07:52:17;102200;;;-0.67174;36.72136
46174;BME280;31897;52.420;13.498;2023-01-29T07:55:18;102200;;;-0.70727;36.73302
46174;BME280;31897;52.420;13.498;2023-01-29T07:58:19;102200;;;-0.72891;36.82486
46174;BME280;31897;52.420;13.498;2023-01-29T08:01:20;102100;;;-0.72277;36.87642
46174;BME280;31897;52.420;13.498;2023-01-29T08:04:20;102200;;;-0.76896;36.91677
46174;BME280;31897;52.420;13.498;2023-01-29T08:07:21;102200;;;-0.81483;37.04882
46174;BME280;31897;52.420;13.498;2023-01-29T08:10:22;102200;;;-0.81677;37.08895
46174;BME280;31897;52.420;13.498;2023-01-29T08:13:23;102200;;;-0.73246;37.17456
46174;BME280;31897;52.420;13.498;2023-01-29T08:16:24;102100;;;-0.74958;37.14597
46174;BME280;31897;52.420;13.498;2023-01-29T08:19:25;102100;;;-0.7147;37.24327
46174;BME280;31897;52.420;13.498;2023-01-29T08:22:25;102200;;;-0.747;37.29499
46174;BME280;31897;52.420;13.498;2023-01-29T08:25:26;102200;;;-0.74248;37.43827
46174;BME280;31897;52.420;13.498;2023-01-29T08:28:27;102200;;;-0.6656;37.37493
46174;BME280;31897;52.420;13.498;2023-01-29T08:31:28;102100;;;-0.61457;37.39767
46174;BME280;31897;52.420;13.498;2023-01-29T08:34:29;102100;;;-0.56676;37.39176
46174;BME280;31897;52.420;13.498;2023-01-29T08:37:30;102100;;;-0.53349;37.39737
46174;BME280;31897;52.420;13.498;2023-01-29T08:40:31;102100;;;-0.53252;37.38589
46174;BME280;31897;52.420;13.498;2023-01-29T08:43:32;102100;;;-0.44693;37.38557
46174;BME280;31897;52.420;13.498;2023-01-29T08:46:33;102100;;;-0.38007;37.29926
46174;BME280;31897;52.420;13.498;2023-01-29T08:49:34;102100;;;-0.30804;37.27028
46174;BME280;31897;52.420;13.498;2023-01-29T08:52:34;102100;;;-0.3384;37.28762
46174;BME280;31897;52.420;13.498;2023-01-29T08:55:35;102100;;;-0.33032;37.36217
46174;BME280;31897;52.420;13.498;2023-01-29T08:58:36;102100;;;-0.40365;37.31083
46174;BME280;31897;52.420;13.498;2023-01-29T09:01:37;102100;;;-0.38976;37.44271
46174;BME280;31897;52.420;13.498;2023-01-29T09:04:38;102100;;;-0.2696;37.43652
46174;BME280;31897;52.420;13.498;2023-01-29T09:07:38;102100;;;-0.29673;37.37351
46174;BME280;31897;52.420;13.498;2023-01-29T09:10:39;102100;;;-0.2893;37.37922
46174;BME280;31897;52.420;13.498;2023-01-29T09:13:40;102100;;;-0.21889;37.36747
46174;BME280;31897;52.420;13.498;2023-01-29T09:16:41;102100;;;-0.21501;37.29285
46174;BME280;31897;52.420;13.498;2023-01-29T09:19:41;102100;;;-0.16818;37.35005
46174;BME280;31897;52.420;13.498;2023-01-29T09:22:42;102100;;;-0.13458;37.33269
46174;BME280;31897;52.420;13.498;2023-01-29T09:25:43;102100;;;-0.12974;37.14899
46174;BME280;31897;52.420;13.498;2023-01-29T09:28:44;102100;;;-0.11359;37.25798
46174;BME280;31897;52.420;13.498;2023-01-29T09:31:45;102100;;;-0.12586;37.21211
46174;BME280;31897;52.420;13.498;2023-01-29T09:34:45;102100;;;-0.08969;37.16029
46174;BME280;31897;52.420;13.498;2023-01-29T09:37:46;102100;;;-0.03284;37.22893
46174;BME280;31897;52.420;13.498;2023-01-29T09:40:50;102100;;;0.06374;37.09642
46174;BME280;31897;52.420;13.498;2023-01-29T09:43:54;102100;;;0.04985;37.0046
46174;BME280;31897;52.420;13.498;2023-01-29T09:46:56;102100;;;0.12834;36.9755
46174;BME280;31897;52.420;13.498;2023-01-29T09:49:58;102100;;;0.23106;36.84858
46174;BME280;31897;52.420;13.498;2023-01-29T09:53:02;102100;;;0.18196;36.88905
46174;BME280;31897;52.420;13.498;2023-01-29T09:56:05;102100;;;0.29178;36.75056
46174;BME280;31897;52.420;13.498;2023-01-29T09:59:10;102100;;;0.3987;36.69248
46174;BME280;31897;52.420;13.498;2023-01-29T10:02:16;102100;;;0.54211;36.68015
46174;BME280;31897;52.420;13.498;2023-01-29T10:05:25;102100;;;0.63869;36.49554
46174;BME280;31897;52.420;13.498;2023-01-29T10:08:32;102100;;;0.70038;36.34558
46174;BME280;31897;52.420;13.498;2023-01-29T10:11:38;102100;;;0.72687;36.38568
46174;BME280;31897;52.420;13.498;2023-01-29T10:14:46;102100;;;0.79664;36.33918
46174;BME280;31897;52.420;13.498;2023-01-29T10:17:55;102100;;;0.95524;36.18269
46174;BME280;31897;52.420;13.498;2023-01-29T10:21:00;102100;;;1.20395;35.84683
46174;BME280;31897;52.420;13.498;2023-01-29T10:24:07;102000;;;1.28987;35.67329
46174;BME280;31897;52.420;13.498;2023-01-29T10:27:11;102000;;;1.35415;35.59784
46174;BME280;31897;52.420;13.498;2023-01-29T10:30:18;102000;;;1.50241;35.48702
46174;BME280;31897;52.420;13.498;2023-01-29T10:33:22;102000;;;1.68362;35.17395
46174;BME280;31897;52.420;13.498;2023-01-29T10:36:25;102100;;;1.98983;34.78421
46174;BME280;31897;52.420;13.498;2023-01-29T10:39:28;102100;;;2.31058;34.19725
46174;BME280;31897;52.420;13.498;2023-01-29T10:42:30;102100;;;2.28927;34.33039
46174;BME280;31897;52.420;13.498;2023-01-29T10:45:36;102100;;;2.37325;34.08091
46174;BME280;31897;52.420;13.498;2023-01-29T10:48:43;102000;;;2.51279;34.13118
46174;BME280;31897;52.420;13.498;2023-01-29T10:51:52;102000;;;2.5396;33.89961
46174;BME280;31897;52.420;13.498;2023-01-29T10:55:02;102000;;;2.64103;33.96766
46174;BME280;31897;52.420;13.498;2023-01-29T10:58:06;102000;;;2.57933;33.78924
46174;BME280;31897;52.420;13.498;2023-01-29T11:01:11;102000;;;2.69239;33.59108
46174;BME280;31897;52.420;13.498;2023-01-29T11:04:12;102000;;;2.9747;33.41934
46174;BME280;31897;52.420;13.498;2023-01-29T11:07:14;102000;;;2.99731;33.29168
46174;BME280;31897;52.420;13.498;2023-01-29T11:10:16;102000;;;2.9957;33.00808
46174;BME280;31897;52.420;13.498;2023-01-29T11:13:21;102000;;;3.04996;33.08251
46174;BME280;31897;52.420;13.498;2023-01-29T11:16:25;102000;;;3.00409;32.92691
46174;BME280;31897;52.420;13.498;2023-01-29T11:19:35;102000;;;3.01928;32.86299
46174;BME280;31897;52.420;13.498;2023-01-29T11:22:36;102000;;;3.00119;32.93853
46174;BME280;31897;52.420;13.498;2023-01-29T11:25:53;102000;;;3.007;32.90371
46174;BME280;31897;52.420;13.498;2023-01-29T11:28:54;102000;;;3.01766;32.82828
46174;BME280;31897;52.420;13.498;2023-01-29T11:31:55;102000;;;3.01475;32.87464
46174;BME280;31897;52.420;13.498;2023-01-29T11:34:58;102000;;;2.94401;32.81786
46174;BME280;31897;52.420;13.498;2023-01-29T11:38:05;102000;;;2.92011;32.84717
46174;BME280;31897;52.420;13.498;2023-01-29T11:41:09;102000;;;2.96275;32.91597
46174;BME280;31897;52.420;13.498;2023-01-29T11:44:17;102000;;;2.93658;32.84691
46174;BME280;31897;52.420;13.498;2023-01-29T11:47:19;102000;;;2.96178;32.84073
46174;BME280;31897;52.420;13.498;2023-01-29T11:50:22;102000;;;2.96566;32.69017
46174;BME280;31897;52.420;13.498;2023-01-29T11:53:29;102000;;;2.93077;32.69651
46174;BME280;31897;52.420;13.498;2023-01-29T11:56:32;101900;;;2.94757;32.82359
46174;BME280;31897;52.420;13.498;2023-01-29T11:59:37;101900;;;2.96792;32.68434
46174;BME280;31897;52.420;13.498;2023-01-29T12:02:41;101900;;;2.90751;32.65637
46174;BME280;31897;52.420;13.498;2023-01-29T12:05:52;101900;;;2.93691;32.70799
46174;BME280;31897;52.420;13.498;2023-01-29T12:08:54;101900;;;2.9298;32.54603
46174;BME280;31897;52.420;13.498;2023-01-29T12:11:55;101900;;;2.85551;32.47779
46174;BME280;31897;52.420;13.498;2023-01-29T12:15:17;101900;;;2.79801;32.50188
46174;BME280;31897;52.420;13.498;2023-01-29T12:18:19;101900;;;2.87295;32.55275
46174;BME280;31897;52.420;13.498;2023-01-29T12:21:27;101900;;;2.96792;32.52225
46174;BME280;31897;52.420;13.498;2023-01-29T12:24:30;101900;;;3.06934;32.17894
46174;BME280;31897;52.420;13.498;2023-01-29T12:27:34;101900;;;3.02121;32.12766
46174;BME280;31897;52.420;13.498;2023-01-29T12:30:39;101900;;;3.03995;32.28947
46174;BME280;31897;52.420;13.498;2023-01-29T12:33:45;101900;;;3.0716;32.21365
46174;BME280;31897;52.420;13.498;2023-01-29T12:36:51;101900;;;3.02735;31.95383
46174;BME280;31897;52.420;13.498;2023-01-29T12:39:55;101900;;;2.98439;32.10513
46174;BME280;31897;52.420;13.498;2023-01-29T12:42:56;101900;;;3.02929;31.948
46174;BME280;31897;52.420;13.498;2023-01-29T12:46:00;101900;;;2.97922;31.96047
46174;BME280;31897;52.420;13.498;2023-01-29T12:49:02;101800;;;3.01185;32.08149
46174;BME280;31897;52.420;13.498;2023-01-29T12:52:08;101900;;;2.93368;31.88601
46174;BME280;31897;52.420;13.498;2023-01-29T12:55:14;101900;;;2.82353;31.83587
46174;BME280;31897;52.420;13.498;2023-01-29T12:58:17;101900;;;2.70337;31.92482
46174;BME280;31897;52.420;13.498;2023-01-29T13:01:25;101900;;;2.67397;31.9832
46174;BME280;31897;52.420;13.498;2023-01-29T13:04:29;101900;;;2.63231;32.09385
46174;BME280;31897;52.420;13.498;2023-01-29T13:07:32;101900;;;2.63618;32.13428
46174;BME280;31897;52.420;13.498;2023-01-29T13:10:36;101900;;;2.68528;32.15659
46174;BME280;31897;52.420;13.498;2023-01-29T13:13:40;101900;;;2.69626;32.10432
46174;BME280;31897;52.420;13.498;2023-01-29T13:16:44;101900;;;2.60485;32.02497
46174;BME280;31897;52.420;13.498;2023-01-29T13:19:48;101900;;;2.54929;32.04322
46174;BME280;31897;52.420;13.498;2023-01-29T13:22:50;101900;;;2.52507;32.14196
46174;BME280;31897;52.420;13.498;2023-01-29T13:25:51;101900;;;2.41556;32.1554
46174;BME280;31897;52.420;13.498;2023-01-29T13:28:53;101800;;;2.49761;32.25232
46174;BME280;31897;52.420;13.498;2023-01-29T13:31:54;101800;;;2.61971;32.19241
46174;BME280;31897;52.420;13.498;2023-01-29T13:34:56;101800;;;2.64975;32.09933
46174;BME280;31897;52.420;13.498;2023-01-29T13:37:58;101800;;;2.77895;32.09132
46174;BME280;31897;52.420;13.498;2023-01-29T13:40:59;101800;;;2.75311;32.11491
46174;BME280;31897;52.420;13.498;2023-01-29T13:44:01;101800;;;2.59225;32.07718
46174;BME280;31897;52.420;13.498;2023-01-29T13:47:03;101800;;;2.59516;32.14077
46174;BME280;31897;52.420;13.498;2023-01-29T13:50:05;101800;;;2.52668;32.11302
46174;BME280;31897;52.420;13.498;2023-01-29T13:53:08;101800;;;2.41879;32.16691
46174;BME280;31897;52.420;13.498;2023-01-29T13:59:51;101800;;;2.36388;32.28924
46174;BME280;31897;52.420;13.498;2023-01-29T14:03:31;101800;;;2.26213;32.37764
46174;BME280;31897;52.420;13.498;2023-01-29T14:06:35;101800;;;2.16652;32.53523
46174;BME280;31897;52.420;13.498;2023-01-29T14:12:54;101800;;;2.06865;32.63501
46174;BME280;31897;52.420;13.498;2023-01-29T14:16:26;101800;;;2.03893;32.80877
46174;BME280;31897;52.420;13.498;2023-01-29T14:19:27;101800;;;2.01794;32.79176
46174;BME280;31897;52.420;13.498;2023-01-29T14:22:28;101800;;;1.96109;32.98899
46174;BME280;31897;52.420;13.498;2023-01-29T14:25:30;101800;;;1.94138;33.18562
46174;BME280;31897;52.420;13.498;2023-01-29T14:28:32;101800;;;1.92103;33.33603
46174;BME280;31897;52.420;13.498;2023-01-29T14:31:36;101800;;;1.95979;33.49139
46174;BME280;31897;52.420;13.498;2023-01-29T14:34:40;101800;;;1.86612;33.65431
46174;BME280;31897;52.420;13.498;2023-01-29T14:37:44;101800;;;1.74112;33.97336
46174;BME280;31897;52.420;13.498;2023-01-29T14:40:45;101800;;;1.74305;34.15798
46174;BME280;31897;52.420;13.498;2023-01-29T14:43:46;101800;;;1.74822;34.26755
46174;BME280;31897;52.420;13.498;2023-01-29T14:46:47;101800;;;1.72981;34.37739
46174;BME280;31897;52.420;13.498;2023-01-29T14:49:49;101800;;;1.69977;34.53351
46174;BME280;31897;52.420;13.498;2023-01-29T14:52:50;101800;;;1.71205;34.67759
46174;BME280;31897;52.420;13.498;2023-01-29T14:55:54;101800;;;1.64551;34.67255
46174;BME280;31897;52.420;13.498;2023-01-29T14:58:56;101800;;;1.61385;34.84015
46174;BME280;31897;52.420;13.498;2023-01-29T15:02:04;101800;;;1.54182;34.85244
46174;BME280;31897;52.420;13.498;2023-01-29T15:05:13;101800;;;1.48562;35.02022
46174;BME280;31897;52.420;13.498;2023-01-29T15:08:17;101800;;;1.4672;35.153
46174;BME280;31897;52.420;13.498;2023-01-29T15:11:21;101800;;;1.43393;35.23978
46174;BME280;31897;52.420;13.498;2023-01-29T15:14:28;101800;;;1.39194;35.24595
46174;BME280;31897;52.420;13.498;2023-01-29T15:17:32;101800;;;1.35867;35.36152
46174;BME280;31897;52.420;13.498;2023-01-29T15:20:37;101800;;;1.29633;35.48886